Time;durP1;ratioP1;P1;durP2;ratioP2;P2;SDS_P1;SDS_P2;PMS_P1;PMS_P2;Temp;Humidity;BMP_temperature;BMP_pressure;BME280_temperature;BME280_humidity;BME280_pressure;Samples;Min_cycle;Max_cycle;Signal;HPM_P1;HPM_P2
2022/12/24 00:00:26;;;;;;;8.80;3.30;;;;;;;;;;106617;1305;22653;-77
2022/12/24 00:03:16;;;;;;;8.40;3.00;;;;;;;;;;106623;1311;22035;-77
2022/12/24 00:05:45;;;;;;;7.20;2.70;;;;;;;;;;106596;1313;22108;-76
2022/12/24 00:08:14;;;;;;;7.80;2.50;;;;;;;;;;106585;1308;22041;-77
2022/12/24 00:10:43;;;;;;;7.60;2.50;;;;;;;;;;106605;1313;22076;-77
2022/12/24 00:13:13;;;;;;;8.90;3.20;;;;;;;;;;106620;1310;22832;-77
2022/12/24 00:15:42;;;;;;;9.20;3.10;;;;;;;;;;106672;1302;22077;-77
2022/12/24 00:18:11;;;;;;;9.60;2.90;;;;;;;;;;106649;1311;22724;-77
2022/12/24 00:20:41;;;;;;;8.70;3.30;;;;;;;;;;106579;1306;21995;-77
2022/12/24 00:23:10;;;;;;;8.50;2.70;;;;;;;;;;106451;1307;22077;-77
2022/12/24 00:25:39;;;;;;;7.90;2.60;;;;;;;;;;106539;1313;22143;-77
2022/12/24 00:28:09;;;;;;;11.00;4.00;;;;;;;;;;106592;1305;22162;-77
2022/12/24 00:30:39;;;;;;;13.60;6.00;;;;;;;;;;106627;1304;22029;-77
2022/12/24 00:33:08;;;;;;;10.50;4.70;;;;;;;;;;106624;1313;22058;-77
2022/12/24 00:35:38;;;;;;;11.40;4.40;;;;;;;;;;106684;1310;22093;-77
2022/12/24 00:38:08;;;;;;;10.50;4.60;;;;;;;;;;106560;1298;21717;-78
2022/12/24 00:40:37;;;;;;;8.40;3.40;;;;;;;;;;106610;1312;22538;-77
2022/12/24 00:43:06;;;;;;;8.40;3.40;;;;;;;;;;106629;1305;22064;-77
2022/12/24 00:45:35;;;;;;;8.10;2.60;;;;;;;;;;106690;1308;22075;-77
2022/12/24 00:48:04;;;;;;;8.20;3.00;;;;;;;;;;106597;1304;22105;-77
2022/12/24 00:50:32;;;;;;;7.90;2.90;;;;;;;;;;106715;1310;22740;-78
2022/12/24 00:53:02;;;;;;;9.20;3.30;;;;;;;;;;106691;1310;22012;-77
2022/12/24 00:55:31;;;;;;;10.10;3.30;;;;;;;;;;106687;1309;22685;-77
2022/12/24 01:07:33;;;;;;;7.20;2.20;;;;;;;;;;100888;1333;544824;-78
2022/12/24 01:09:59;;;;;;;5.70;1.80;;;;;;;;;;102465;1303;25274;-79
2022/12/24 01:12:26;;;;;;;4.50;1.30;;;;;;;;;;102985;1310;25643;-78
2022/12/24 01:14:53;;;;;;;4.60;1.30;;;;;;;;;;103090;1310;25296;-82
2022/12/24 01:17:19;;;;;;;6.80;1.90;;;;;;;;;;102865;1313;22468;-77
2022/12/24 01:19:46;;;;;;;6.00;1.40;;;;;;;;;;103134;1304;22441;-78
2022/12/24 01:22:13;;;;;;;2.90;1.00;;;;;;;;;;102384;1303;1645210;-81
2022/12/24 01:24:40;;;;;;;4.70;1.30;;;;;;;;;;103526;1306;22522;-77
2022/12/24 01:27:07;;;;;;;3.80;0.90;;;;;;;;;;103486;1304;22641;-78
2022/12/24 01:29:34;;;;;;;4.50;1.00;;;;;;;;;;103847;1304;24211;-80
2022/12/24 01:32:00;;;;;;;3.70;0.90;;;;;;;;;;103772;1304;23143;-82
2022/12/24 01:34:27;;;;;;;3.50;1.00;;;;;;;;;;103552;1307;22510;-80
2022/12/24 01:36:53;;;;;;;3.00;0.80;;;;;;;;;;103716;1304;24318;-82
2022/12/24 01:39:20;;;;;;;2.00;0.60;;;;;;;;;;103479;1306;26464;-78
2022/12/24 01:44:34;;;;;;;1.90;0.60;;;;;;;;;;103578;1305;25212;-80
2022/12/24 01:47:13;;;;;;;3.10;0.70;;;;;;;;;;103588;1304;24282;-79
2022/12/24 01:49:52;;;;;;;2.50;0.70;;;;;;;;;;103656;1304;24237;-78
2022/12/24 01:52:20;;;;;;;3.20;0.90;;;;;;;;;;103738;1304;22516;-78
2022/12/24 01:54:52;;;;;;;3.50;0.80;;;;;;;;;;103746;1304;26459;-79
2022/12/24 01:57:24;;;;;;;3.60;1.00;;;;;;;;;;103560;1304;22477;-78
2022/12/24 01:59:54;;;;;;;3.60;0.90;;;;;;;;;;103391;1304;23522;-85
2022/12/24 02:02:21;;;;;;;4.40;0.70;;;;;;;;;;103337;1306;22442;-84
2022/12/24 02:05:06;;;;;;;2.60;0.70;;;;;;;;;;103303;1304;22511;-79
2022/12/24 02:07:34;;;;;;;3.40;0.60;;;;;;;;;;103556;1306;23860;-78
2022/12/24 02:10:03;;;;;;;2.90;0.60;;;;;;;;;;103449;1296;23989;-82
2022/12/24 02:12:31;;;;;;;2.10;0.40;;;;;;;;;;103517;1307;22477;-80
2022/12/24 02:14:58;;;;;;;3.70;0.70;;;;;;;;;;103548;1299;23857;-78
2022/12/24 02:17:39;;;;;;;4.60;0.90;;;;;;;;;;103461;1307;22487;-79
2022/12/24 02:20:24;;;;;;;3.30;0.60;;;;;;;;;;103279;1307;25232;-82
2022/12/24 02:23:05;;;;;;;2.50;0.60;;;;;;;;;;103525;1306;22487;-82
2022/12/24 02:25:37;;;;;;;2.00;0.40;;;;;;;;;;103451;1291;23185;-83
2022/12/24 02:28:23;;;;;;;2.60;0.50;;;;;;;;;;103375;1305;23197;-78
2022/12/24 02:30:53;;;;;;;3.70;0.90;;;;;;;;;;103586;1307;24250;-80
2022/12/24 02:33:34;;;;;;;2.10;0.60;;;;;;;;;;103604;1301;22468;-80
2022/12/24 02:36:09;;;;;;;2.90;0.60;;;;;;;;;;103403;1307;22967;-78
2022/12/24 02:38:51;;;;;;;2.80;0.50;;;;;;;;;;103203;1306;22463;-78
2022/12/24 02:41:25;;;;;;;2.50;0.40;;;;;;;;;;103209;1306;24241;-79
2022/12/24 02:43:53;;;;;;;3.00;0.50;;;;;;;;;;103327;1306;24244;-80
2022/12/24 02:46:26;;;;;;;3.30;0.60;;;;;;;;;;103344;1307;24455;-77
2022/12/24 02:48:53;;;;;;;2.90;0.50;;;;;;;;;;103567;1306;23259;-80
2022/12/24 02:51:23;;;;;;;2.40;0.60;;;;;;;;;;103522;1307;25409;-80
2022/12/24 02:53:50;;;;;;;2.70;0.60;;;;;;;;;;103581;1304;22513;-78
2022/12/24 02:56:35;;;;;;;1.90;0.50;;;;;;;;;;103513;1307;22612;-79
2022/12/24 02:59:21;;;;;;;5.00;0.70;;;;;;;;;;103478;1307;24464;-78
2022/12/24 03:02:06;;;;;;;2.90;0.60;;;;;;;;;;103321;1306;22414;-78
2022/12/24 03:04:39;;;;;;;4.90;0.60;;;;;;;;;;103470;1306;26452;-78
2022/12/24 03:07:06;;;;;;;2.60;0.60;;;;;;;;;;103459;1307;24292;-83
2022/12/24 03:09:38;;;;;;;2.10;0.60;;;;;;;;;;103469;1305;22461;-76
2022/12/24 03:12:07;;;;;;;2.70;0.60;;;;;;;;;;103468;1304;24238;-79
2022/12/24 03:14:34;;;;;;;4.90;1.10;;;;;;;;;;103512;1306;22480;-77
2022/12/24 03:17:01;;;;;;;2.70;0.70;;;;;;;;;;103434;1307;22495;-82
2022/12/24 03:19:29;;;;;;;3.30;0.90;;;;;;;;;;103574;1306;22471;-80
2022/12/24 03:21:57;;;;;;;3.10;0.90;;;;;;;;;;103477;1306;23055;-82
2022/12/24 03:24:23;;;;;;;4.10;0.80;;;;;;;;;;103590;1299;23878;-78
2022/12/24 03:26:51;;;;;;;4.30;0.80;;;;;;;;;;103492;1306;24240;-77
2022/12/24 03:29:18;;;;;;;4.20;1.00;;;;;;;;;;103307;1302;22991;-78
2022/12/24 03:31:49;;;;;;;4.50;1.00;;;;;;;;;;103364;1307;25326;-81
2022/12/24 03:34:16;;;;;;;4.70;0.90;;;;;;;;;;103548;1307;25316;-82
2022/12/24 03:36:43;;;;;;;3.90;0.90;;;;;;;;;;103576;1300;22479;-80
2022/12/24 03:39:10;;;;;;;4.90;0.90;;;;;;;;;;103568;1304;25335;-80
2022/12/24 03:41:36;;;;;;;6.00;1.70;;;;;;;;;;103344;1306;22468;-77
2022/12/24 03:44:03;;;;;;;2.10;0.60;;;;;;;;;;103519;1306;22550;-78
2022/12/24 03:46:30;;;;;;;5.30;1.00;;;;;;;;;;103422;1306;22467;-80
2022/12/24 03:48:57;;;;;;;5.70;1.10;;;;;;;;;;103451;1302;22481;-77
2022/12/24 03:51:24;;;;;;;6.00;0.90;;;;;;;;;;103456;1306;22714;-83
2022/12/24 03:53:51;;;;;;;5.40;1.10;;;;;;;;;;103522;1306;25279;-77
2022/12/24 03:56:19;;;;;;;3.90;0.90;;;;;;;;;;103482;1307;22583;-83
2022/12/24 03:58:46;;;;;;;4.20;0.80;;;;;;;;;;103608;1307;22512;-82
2022/12/24 04:01:13;;;;;;;6.50;1.00;;;;;;;;;;103459;1307;25814;-83
2022/12/24 04:03:40;;;;;;;4.20;0.60;;;;;;;;;;103373;1307;22461;-80
2022/12/24 04:06:11;;;;;;;6.50;0.80;;;;;;;;;;103336;1306;22537;-81
2022/12/24 04:08:38;;;;;;;1.80;0.50;;;;;;;;;;103521;1300;25319;-80
2022/12/24 04:11:06;;;;;;;3.30;0.50;;;;;;;;;;103492;1305;22498;-81
2022/12/24 04:13:33;;;;;;;3.80;0.50;;;;;;;;;;103515;1307;24421;-84
2022/12/24 04:16:01;;;;;;;4.00;0.70;;;;;;;;;;103426;1307;22408;-77
2022/12/24 04:18:28;;;;;;;3.90;0.60;;;;;;;;;;103518;1298;26646;-77
2022/12/24 04:20:55;;;;;;;4.50;0.60;;;;;;;;;;103520;1305;22595;-84
2022/12/24 04:23:21;;;;;;;5.20;0.70;;;;;;;;;;103515;1306;22473;-82
2022/12/24 04:25:48;;;;;;;6.80;1.00;;;;;;;;;;103365;1306;25290;-76
2022/12/24 04:28:15;;;;;;;6.10;1.00;;;;;;;;;;103463;1306;24451;-84
2022/12/24 04:30:43;;;;;;;3.90;0.80;;;;;;;;;;103530;1306;25249;-81
2022/12/24 04:33:09;;;;;;;4.70;0.60;;;;;;;;;;103420;1307;26387;-78
2022/12/24 04:35:40;;;;;;;2.60;0.50;;;;;;;;;;103512;1307;22472;-77
2022/12/24 04:38:07;;;;;;;6.50;0.90;;;;;;;;;;103537;1307;22754;-79
2022/12/24 04:40:35;;;;;;;4.30;0.60;;;;;;;;;;103454;1307;24271;-77
2022/12/24 04:43:01;;;;;;;3.60;0.80;;;;;;;;;;103361;1307;23893;-83
2022/12/24 04:45:28;;;;;;;6.60;0.90;;;;;;;;;;103437;1306;25218;-79
2022/12/24 04:47:54;;;;;;;4.80;0.60;;;;;;;;;;103440;1306;22517;-84
2022/12/24 04:50:21;;;;;;;5.30;0.60;;;;;;;;;;103447;1306;22459;-82
2022/12/24 04:52:48;;;;;;;5.10;0.70;;;;;;;;;;103384;1307;22549;-80
2022/12/24 04:55:15;;;;;;;6.20;1.00;;;;;;;;;;103535;1300;26450;-76
2022/12/24 04:57:41;;;;;;;4.60;0.90;;;;;;;;;;103260;1307;23179;-78
2022/12/24 05:00:08;;;;;;;4.00;0.80;;;;;;;;;;103468;1285;25359;-75
2022/12/24 05:02:35;;;;;;;5.10;0.70;;;;;;;;;;103506;1304;22466;-85
2022/12/24 05:05:02;;;;;;;6.10;1.10;;;;;;;;;;103481;1306;22454;-81
2022/12/24 05:07:29;;;;;;;4.90;0.80;;;;;;;;;;103473;1306;24161;-77
2022/12/24 05:09:55;;;;;;;5.60;0.90;;;;;;;;;;103468;1306;24286;-78
2022/12/24 05:12:22;;;;;;;5.60;1.00;;;;;;;;;;103384;1307;22459;-80
2022/12/24 05:14:48;;;;;;;4.70;0.70;;;;;;;;;;103392;1307;22461;-79
2022/12/24 05:17:15;;;;;;;6.40;0.90;;;;;;;;;;103486;1298;22466;-77
2022/12/24 05:19:42;;;;;;;5.20;0.80;;;;;;;;;;103446;1307;23318;-81
2022/12/24 05:27:39;;;;;;;3.40;0.70;;;;;;;;;;103502;1306;24214;-76
2022/12/24 05:30:06;;;;;;;4.40;0.90;;;;;;;;;;103446;1306;24671;-78
2022/12/24 05:32:33;;;;;;;4.70;0.70;;;;;;;;;;103489;1298;24313;-81
2022/12/24 05:34:59;;;;;;;4.80;0.80;;;;;;;;;;103384;1287;22472;-78
2022/12/24 05:37:26;;;;;;;6.80;0.70;;;;;;;;;;103431;1281;25244;-77
2022/12/24 05:39:53;;;;;;;3.10;0.60;;;;;;;;;;103260;1306;22473;-79
2022/12/24 05:42:19;;;;;;;3.20;0.60;;;;;;;;;;103404;1306;25495;-78
2022/12/24 05:44:46;;;;;;;2.80;0.60;;;;;;;;;;103467;1307;24270;-83
2022/12/24 05:47:12;;;;;;;3.50;0.60;;;;;;;;;;103512;1307;25271;-76
2022/12/24 05:49:39;;;;;;;6.00;0.90;;;;;;;;;;103470;1307;22673;-78
2022/12/24 05:52:06;;;;;;;4.50;0.90;;;;;;;;;;103463;1307;22452;-83
2022/12/24 05:54:32;;;;;;;5.60;0.90;;;;;;;;;;103435;1300;22463;-81
2022/12/24 05:56:59;;;;;;;6.30;1.00;;;;;;;;;;103303;1307;24314;-84
2022/12/24 05:59:26;;;;;;;3.10;0.70;;;;;;;;;;103396;1306;23939;-77
2022/12/24 06:01:52;;;;;;;4.70;0.80;;;;;;;;;;103366;1306;22464;-81
2022/12/24 06:04:19;;;;;;;4.60;0.90;;;;;;;;;;103452;1307;25371;-79
2022/12/24 06:06:45;;;;;;;3.80;0.60;;;;;;;;;;103442;1306;22471;-76
2022/12/24 06:09:12;;;;;;;4.60;0.60;;;;;;;;;;103511;1307;22520;-82
2022/12/24 06:11:39;;;;;;;5.30;0.80;;;;;;;;;;103478;1307;26525;-77
2022/12/24 06:14:06;;;;;;;5.60;0.70;;;;;;;;;;103413;1307;22512;-77
2022/12/24 06:16:32;;;;;;;3.10;0.60;;;;;;;;;;103455;1305;22482;-81
2022/12/24 06:18:59;;;;;;;3.60;0.70;;;;;;;;;;103484;1306;22552;-79
2022/12/24 06:21:25;;;;;;;2.10;0.50;;;;;;;;;;103356;1306;22464;-79
2022/12/24 06:23:52;;;;;;;5.20;0.50;;;;;;;;;;103253;1307;22491;-76
2022/12/24 06:26:20;;;;;;;4.10;0.80;;;;;;;;;;103413;1305;25295;-76
2022/12/24 06:28:47;;;;;;;2.70;0.50;;;;;;;;;;103495;1306;25530;-82
2022/12/24 06:31:16;;;;;;;3.00;0.50;;;;;;;;;;103490;1307;22459;-83
2022/12/24 06:33:43;;;;;;;2.30;0.40;;;;;;;;;;103599;1305;22515;-83
2022/12/24 06:36:12;;;;;;;5.80;0.60;;;;;;;;;;103416;1306;22507;-82
2022/12/24 06:38:39;;;;;;;1.50;0.40;;;;;;;;;;103357;1306;24430;-77
2022/12/24 06:41:06;;;;;;;3.50;0.70;;;;;;;;;;103457;1306;22478;-83
2022/12/24 06:43:33;;;;;;;1.60;0.60;;;;;;;;;;103362;1306;25284;-80
2022/12/24 06:46:01;;;;;;;3.20;0.60;;;;;;;;;;103368;1302;22454;-78
2022/12/24 06:48:28;;;;;;;5.00;0.80;;;;;;;;;;103519;1306;23339;-79
2022/12/24 06:50:54;;;;;;;4.40;1.30;;;;;;;;;;103415;1307;25326;-80
2022/12/24 06:53:22;;;;;;;3.00;0.80;;;;;;;;;;103445;1302;22480;-76
2022/12/24 06:55:48;;;;;;;4.20;0.90;;;;;;;;;;103444;1306;25252;-77
2022/12/24 06:58:15;;;;;;;5.50;1.00;;;;;;;;;;103411;1307;24362;-80
2022/12/24 07:00:41;;;;;;;6.10;1.10;;;;;;;;;;103459;1285;25300;-81
2022/12/24 07:03:08;;;;;;;8.50;2.50;;;;;;;;;;103460;1306;22459;-82
2022/12/24 07:05:35;;;;;;;9.80;3.20;;;;;;;;;;103482;1305;24238;-77
2022/12/24 07:08:01;;;;;;;6.00;1.60;;;;;;;;;;103463;1307;25256;-81
2022/12/24 07:10:28;;;;;;;3.70;0.80;;;;;;;;;;103364;1307;26008;-79
2022/12/24 07:12:54;;;;;;;3.30;0.60;;;;;;;;;;103515;1307;24252;-79
2022/12/24 07:15:21;;;;;;;2.50;0.60;;;;;;;;;;103611;1305;22477;-82
2022/12/24 07:17:48;;;;;;;4.10;0.50;;;;;;;;;;103458;1307;24285;-83
2022/12/24 07:20:14;;;;;;;4.00;0.80;;;;;;;;;;103460;1307;22476;-78
2022/12/24 07:22:41;;;;;;;3.70;0.70;;;;;;;;;;103539;1306;24218;-77
2022/12/24 07:25:08;;;;;;;3.20;0.60;;;;;;;;;;103494;1305;24257;-80
2022/12/24 07:27:35;;;;;;;4.90;0.90;;;;;;;;;;103549;1307;25296;-80
2022/12/24 07:30:02;;;;;;;4.70;0.80;;;;;;;;;;103576;1294;26462;-79
2022/12/24 07:32:29;;;;;;;4.40;0.90;;;;;;;;;;103453;1303;24360;-78
2022/12/24 07:34:56;;;;;;;5.10;0.80;;;;;;;;;;103633;1305;22542;-76
2022/12/24 07:37:22;;;;;;;4.60;0.80;;;;;;;;;;103510;1306;24218;-82
2022/12/24 07:39:49;;;;;;;3.40;0.70;;;;;;;;;;103541;1306;22932;-80
2022/12/24 07:42:15;;;;;;;2.70;0.50;;;;;;;;;;103408;1306;25565;-78
2022/12/24 07:44:42;;;;;;;3.20;0.90;;;;;;;;;;103285;1292;22533;-81
2022/12/24 07:47:09;;;;;;;2.40;0.60;;;;;;;;;;103571;1307;22461;-77
2022/12/24 07:49:35;;;;;;;2.80;0.80;;;;;;;;;;103633;1307;22465;-82
2022/12/24 07:52:03;;;;;;;3.40;0.60;;;;;;;;;;103481;1307;22466;-83
2022/12/24 07:54:29;;;;;;;4.40;0.80;;;;;;;;;;103557;1307;25295;-79
2022/12/24 07:56:56;;;;;;;6.70;1.30;;;;;;;;;;103533;1292;26521;-81
2022/12/24 07:59:23;;;;;;;7.30;1.50;;;;;;;;;;103503;1306;22476;-83
2022/12/24 08:01:49;;;;;;;4.60;1.10;;;;;;;;;;103540;1306;25238;-78
2022/12/24 08:04:16;;;;;;;5.50;1.20;;;;;;;;;;103473;1285;25254;-84
2022/12/24 08:06:43;;;;;;;4.10;0.70;;;;;;;;;;103436;1292;24567;-83
2022/12/24 08:09:09;;;;;;;3.20;0.70;;;;;;;;;;103469;1278;23850;-82
2022/12/24 08:11:36;;;;;;;6.50;2.30;;;;;;;;;;103639;1290;25385;-83
2022/12/24 08:14:03;;;;;;;7.70;2.70;;;;;;;;;;103515;1306;22913;-81
2022/12/24 08:16:29;;;;;;;8.50;2.10;;;;;;;;;;103477;1306;24480;-81
2022/12/24 08:18:56;;;;;;;4.00;1.00;;;;;;;;;;103306;1307;24251;-81
2022/12/24 08:21:26;;;;;;;4.00;1.30;;;;;;;;;;103378;1284;23100;-80
2022/12/24 08:23:52;;;;;;;5.70;1.10;;;;;;;;;;103509;1281;22461;-82
2022/12/24 08:26:19;;;;;;;6.00;0.80;;;;;;;;;;103360;1305;23168;-79
2022/12/24 08:28:46;;;;;;;4.60;1.00;;;;;;;;;;103492;1306;22551;-83
2022/12/24 08:31:14;;;;;;;4.30;1.20;;;;;;;;;;103508;1288;22519;-83
2022/12/24 08:33:41;;;;;;;4.80;1.00;;;;;;;;;;103709;1292;22593;-81
2022/12/24 08:36:08;;;;;;;6.60;1.60;;;;;;;;;;103660;1291;23076;-77
2022/12/24 08:42:37;;;;;;;7.30;1.30;;;;;;;;;;100461;1328;545376;-81
2022/12/24 08:45:04;;;;;;;5.70;1.00;;;;;;;;;;102462;1296;22492;-82
2022/12/24 08:47:31;;;;;;;9.10;1.60;;;;;;;;;;102645;1296;22489;-78
2022/12/24 08:49:58;;;;;;;9.60;1.60;;;;;;;;;;102424;1302;24382;-79
2022/12/24 08:52:25;;;;;;;5.80;1.40;;;;;;;;;;102478;1305;23104;-78
2022/12/24 08:54:53;;;;;;;6.10;1.10;;;;;;;;;;102387;1305;22488;-77
2022/12/24 08:57:20;;;;;;;6.60;1.00;;;;;;;;;;101384;1302;1678870;-82
2022/12/24 08:59:47;;;;;;;7.20;1.70;;;;;;;;;;103000;1316;22506;-83
2022/12/24 09:02:14;;;;;;;8.80;2.00;;;;;;;;;;102395;1319;22434;-79
2022/12/24 09:04:40;;;;;;;5.90;1.30;;;;;;;;;;102533;1305;22582;-78
2022/12/24 09:07:08;;;;;;;4.80;0.90;;;;;;;;;;102756;1291;22481;-77
2022/12/24 09:09:35;;;;;;;6.30;1.60;;;;;;;;;;102590;1308;25382;-83
2022/12/24 09:12:06;;;;;;;5.30;1.00;;;;;;;;;;102656;1300;22477;-78
2022/12/24 09:14:33;;;;;;;6.20;1.10;;;;;;;;;;102600;1289;22502;-76
2022/12/24 09:17:00;;;;;;;9.30;1.50;;;;;;;;;;102673;1300;25418;-76
2022/12/24 09:19:27;;;;;;;7.90;1.30;;;;;;;;;;102517;1287;22483;-82
2022/12/24 09:21:53;;;;;;;6.20;1.10;;;;;;;;;;102536;1301;24256;-81
2022/12/24 09:24:20;;;;;;;6.30;1.40;;;;;;;;;;102667;1301;22487;-77
2022/12/24 09:26:48;;;;;;;6.40;1.30;;;;;;;;;;102542;1300;22452;-80
2022/12/24 09:29:15;;;;;;;7.10;1.20;;;;;;;;;;102864;1291;25235;-79
2022/12/24 09:31:42;;;;;;;7.30;1.30;;;;;;;;;;102713;1301;25440;-77
2022/12/24 09:34:09;;;;;;;7.10;1.40;;;;;;;;;;103626;1288;22641;-78
2022/12/24 09:36:36;;;;;;;7.20;1.20;;;;;;;;;;103653;1289;22473;-78
2022/12/24 09:39:03;;;;;;;7.20;1.90;;;;;;;;;;103564;1297;22468;-83
2022/12/24 09:41:56;;;;;;;10.30;1.70;;;;;;;;;;103561;1304;22472;-76
2022/12/24 09:44:34;;;;;;;7.50;1.10;;;;;;;;;;103677;1288;22475;-76
2022/12/24 09:47:05;;;;;;;7.50;1.80;;;;;;;;;;103548;1282;22468;-75
2022/12/24 09:49:36;;;;;;;8.20;1.40;;;;;;;;;;103568;1289;24335;-81
2022/12/24 09:52:05;;;;;;;8.60;1.30;;;;;;;;;;103534;1289;24238;-78
2022/12/24 09:54:35;;;;;;;9.00;1.90;;;;;;;;;;103596;1291;24246;-78
2022/12/24 09:57:07;;;;;;;7.40;1.30;;;;;;;;;;103991;1283;22463;-78
2022/12/24 09:59:39;;;;;;;22.80;7.10;;;;;;;;;;103548;1285;22490;-78
2022/12/24 10:02:18;;;;;;;17.80;5.10;;;;;;;;;;103734;1275;22676;-80
2022/12/24 10:04:47;;;;;;;23.30;7.30;;;;;;;;;;103570;1298;24369;-79
2022/12/24 10:07:23;;;;;;;15.60;3.90;;;;;;;;;;106907;1295;22019;-77
2022/12/24 10:10:16;;;;;;;12.20;3.30;;;;;;;;;;106934;1282;22236;-78
2022/12/24 10:12:55;;;;;;;13.50;3.40;;;;;;;;;;106941;1306;22072;-79
2022/12/24 10:15:46;;;;;;;12.50;3.10;;;;;;;;;;106935;1292;22317;-78
2022/12/24 10:18:13;;;;;;;10.50;2.10;;;;;;;;;;107298;1296;22030;-78
2022/12/24 10:20:46;;;;;;;8.10;1.80;;;;;;;;;;107102;1283;22965;-77
2022/12/24 10:23:39;;;;;;;12.40;1.80;;;;;;;;;;106940;1304;22284;-77
2022/12/24 10:26:17;;;;;;;11.20;2.00;;;;;;;;;;106515;1312;22155;-77
2022/12/24 10:28:44;;;;;;;10.30;2.50;;;;;;;;;;106294;1312;22160;-78
2022/12/24 10:31:11;;;;;;;9.50;2.30;;;;;;;;;;106441;1308;22130;-76
2022/12/24 10:33:42;;;;;;;9.90;2.30;;;;;;;;;;106527;1312;22799;-77
2022/12/24 10:36:15;;;;;;;9.60;1.80;;;;;;;;;;106270;1313;22394;-76
2022/12/24 10:38:42;;;;;;;8.50;1.90;;;;;;;;;;106316;1312;22159;-77
2022/12/24 10:41:09;;;;;;;10.50;1.50;;;;;;;;;;106487;1310;22908;-79
2022/12/24 10:43:38;;;;;;;10.80;2.10;;;;;;;;;;106463;1302;21777;-77
2022/12/24 10:46:08;;;;;;;9.10;2.00;;;;;;;;;;106476;1301;23047;-77
2022/12/24 10:48:42;;;;;;;8.10;1.60;;;;;;;;;;106523;1312;22161;-79
2022/12/24 10:51:14;;;;;;;10.10;2.20;;;;;;;;;;106324;1312;22848;-78
2022/12/24 10:53:43;;;;;;;9.10;2.00;;;;;;;;;;106513;1312;22841;-78
2022/12/24 10:56:11;;;;;;;10.30;2.30;;;;;;;;;;106600;1310;22130;-79
2022/12/24 10:59:04;;;;;;;10.40;2.00;;;;;;;;;;106589;1310;22950;-79
2022/12/24 11:01:46;;;;;;;9.40;2.50;;;;;;;;;;106526;1311;22099;-78
2022/12/24 11:04:17;;;;;;;16.10;3.10;;;;;;;;;;106740;1306;22078;-76
2022/12/24 11:06:55;;;;;;;13.60;3.60;;;;;;;;;;106867;1293;22748;-79
2022/12/24 11:09:24;;;;;;;11.20;2.30;;;;;;;;;;107147;1299;22057;-78
2022/12/24 11:11:51;;;;;;;12.70;2.70;;;;;;;;;;106754;1306;22144;-78
2022/12/24 11:14:19;;;;;;;11.50;2.00;;;;;;;;;;106737;1292;22035;-78
2022/12/24 11:16:49;;;;;;;14.80;4.60;;;;;;;;;;106863;1306;22050;-78
2022/12/24 11:19:17;;;;;;;17.60;3.80;;;;;;;;;;106904;1300;22081;-77
2022/12/24 11:21:44;;;;;;;11.30;2.70;;;;;;;;;;106893;1302;22024;-75
2022/12/24 11:24:11;;;;;;;13.70;3.50;;;;;;;;;;106951;1285;22025;-78
2022/12/24 11:26:42;;;;;;;11.10;2.10;;;;;;;;;;106871;1306;21957;-78
2022/12/24 11:29:13;;;;;;;11.40;2.40;;;;;;;;;;106732;1306;22117;-78
2022/12/24 11:31:41;;;;;;;13.90;2.90;;;;;;;;;;106848;1306;22084;-79
2022/12/24 11:34:17;;;;;;;10.80;2.40;;;;;;;;;;107103;1299;22046;-78
2022/12/24 11:36:44;;;;;;;11.60;2.80;;;;;;;;;;106897;1306;22094;-78
2022/12/24 11:39:17;;;;;;;16.40;4.90;;;;;;;;;;106883;1306;22800;-79
2022/12/24 11:41:44;;;;;;;15.30;4.60;;;;;;;;;;106903;1306;23306;-79
2022/12/24 11:44:11;;;;;;;10.10;2.80;;;;;;;;;;106760;1304;22142;-79
2022/12/24 11:46:40;;;;;;;12.90;3.00;;;;;;;;;;106733;1306;22682;-76
2022/12/24 11:49:10;;;;;;;13.00;3.10;;;;;;;;;;106852;1306;22778;-79
2022/12/24 11:51:39;;;;;;;15.30;5.50;;;;;;;;;;106765;1306;22784;-78
2022/12/24 11:54:14;;;;;;;14.10;3.90;;;;;;;;;;106739;1306;22077;-79
2022/12/24 11:56:46;;;;;;;11.90;3.40;;;;;;;;;;106730;1300;22166;-80
2022/12/24 11:59:18;;;;;;;10.60;3.00;;;;;;;;;;106883;1307;22759;-79
2022/12/24 12:01:57;;;;;;;10.80;2.90;;;;;;;;;;106741;1307;22778;-79
2022/12/24 12:04:27;;;;;;;12.20;2.90;;;;;;;;;;106900;1307;22779;-77
2022/12/24 12:06:57;;;;;;;15.60;3.50;;;;;;;;;;106685;1308;22692;-77
2022/12/24 12:09:27;;;;;;;11.60;2.40;;;;;;;;;;106734;1308;22335;-75
2022/12/24 12:11:57;;;;;;;11.40;2.10;;;;;;;;;;106705;1305;22775;-77
2022/12/24 12:14:31;;;;;;;11.10;2.40;;;;;;;;;;106716;1309;22069;-78
2022/12/24 12:17:08;;;;;;;11.70;2.60;;;;;;;;;;106676;1308;21960;-78
2022/12/24 12:19:42;;;;;;;12.40;2.70;;;;;;;;;;106877;1304;22705;-78
2022/12/24 12:22:23;;;;;;;14.30;2.30;;;;;;;;;;106748;1294;22239;-77
2022/12/24 12:24:52;;;;;;;10.70;2.40;;;;;;;;;;107077;1299;22070;-78
2022/12/24 12:27:28;;;;;;;11.60;2.80;;;;;;;;;;106787;1307;22199;-79
2022/12/24 12:29:57;;;;;;;13.40;3.10;;;;;;;;;;106676;1309;22651;-78
2022/12/24 12:32:25;;;;;;;12.40;3.70;;;;;;;;;;107056;1285;22043;-78
2022/12/24 12:35:00;;;;;;;19.10;5.60;;;;;;;;;;106695;1308;22339;-78
2022/12/24 12:37:35;;;;;;;20.20;6.80;;;;;;;;;;106785;1300;22108;-79
2022/12/24 12:40:02;;;;;;;25.40;8.30;;;;;;;;;;106745;1309;22004;-77
2022/12/24 12:42:33;;;;;;;20.40;5.20;;;;;;;;;;106880;1307;21963;-78
2022/12/24 12:45:26;;;;;;;16.80;4.30;;;;;;;;;;106874;1301;22090;-77
2022/12/24 12:47:53;;;;;;;14.60;4.20;;;;;;;;;;106708;1308;22769;-78
2022/12/24 12:50:39;;;;;;;11.10;3.10;;;;;;;;;;106750;1309;21926;-79
2022/12/24 12:53:12;;;;;;;9.70;1.90;;;;;;;;;;106704;1301;22712;-75
2022/12/24 12:55:39;;;;;;;8.20;2.60;;;;;;;;;;106708;1309;22702;-78
2022/12/24 12:58:14;;;;;;;12.50;3.00;;;;;;;;;;106822;1292;22756;-79
2022/12/24 13:00:44;;;;;;;11.10;2.20;;;;;;;;;;106752;1309;22874;-76
2022/12/24 13:03:29;;;;;;;8.30;2.10;;;;;;;;;;107109;1288;22067;-78
2022/12/24 13:06:05;;;;;;;13.70;3.30;;;;;;;;;;107093;1294;22636;-78
2022/12/24 13:08:47;;;;;;;13.60;3.30;;;;;;;;;;106645;1310;22076;-78
2022/12/24 13:11:33;;;;;;;11.00;2.30;;;;;;;;;;106723;1309;22067;-78
2022/12/24 13:13:59;;;;;;;10.50;2.60;;;;;;;;;;106736;1309;22106;-76
2022/12/24 13:16:37;;;;;;;7.00;1.40;;;;;;;;;;106983;1294;22814;-77
2022/12/24 13:19:15;;;;;;;10.40;2.20;;;;;;;;;;106834;1308;22036;-78
2022/12/24 13:21:43;;;;;;;10.40;2.70;;;;;;;;;;106728;1309;22851;-78
2022/12/24 13:24:21;;;;;;;10.80;2.30;;;;;;;;;;106668;1289;22779;-78
2022/12/24 13:27:02;;;;;;;11.90;2.80;;;;;;;;;;106634;1309;22831;-77
2022/12/24 13:29:30;;;;;;;14.20;2.80;;;;;;;;;;106832;1296;22129;-77
2022/12/24 13:32:16;;;;;;;13.00;2.50;;;;;;;;;;106862;1308;21960;-76
2022/12/24 13:34:46;;;;;;;12.50;2.60;;;;;;;;;;106890;1307;22049;-78
2022/12/24 13:37:31;;;;;;;13.60;3.70;;;;;;;;;;106740;1309;22063;-78
2022/12/24 13:40:05;;;;;;;13.30;3.30;;;;;;;;;;106657;1305;22214;-76
2022/12/24 13:42:47;;;;;;;10.80;3.10;;;;;;;;;;106708;1308;21733;-79
2022/12/24 13:45:33;;;;;;;17.30;3.10;;;;;;;;;;106745;1309;22133;-79
2022/12/24 13:48:01;;;;;;;16.20;3.40;;;;;;;;;;106684;1309;22781;-79
2022/12/24 13:50:39;;;;;;;19.00;4.20;;;;;;;;;;106613;1306;22098;-80
2022/12/24 13:53:17;;;;;;;12.10;2.60;;;;;;;;;;106630;1309;22076;-79
2022/12/24 13:55:49;;;;;;;11.20;2.60;;;;;;;;;;106663;1309;22470;-79
2022/12/24 13:58:18;;;;;;;10.90;2.30;;;;;;;;;;106594;1309;22290;-79
2022/12/24 14:00:57;;;;;;;13.90;2.40;;;;;;;;;;106658;1309;21983;-77
2022/12/24 14:03:30;;;;;;;14.20;4.00;;;;;;;;;;106726;1309;22877;-80
2022/12/24 14:06:04;;;;;;;10.40;2.70;;;;;;;;;;106530;1310;22115;-77
2022/12/24 14:08:33;;;;;;;12.80;3.40;;;;;;;;;;106624;1309;22313;-79
2022/12/24 14:11:03;;;;;;;15.30;4.00;;;;;;;;;;106656;1304;22094;-79
2022/12/24 14:13:39;;;;;;;12.30;4.20;;;;;;;;;;106888;1287;22462;-78
2022/12/24 14:16:16;;;;;;;15.40;5.30;;;;;;;;;;106648;1304;22070;-80
2022/12/24 14:18:44;;;;;;;12.90;2.50;;;;;;;;;;106690;1308;22839;-79
2022/12/24 14:21:21;;;;;;;14.90;4.50;;;;;;;;;;106722;1309;22138;-80
2022/12/24 14:23:55;;;;;;;14.60;4.30;;;;;;;;;;106605;1310;21983;-79
2022/12/24 14:26:26;;;;;;;12.10;4.00;;;;;;;;;;106644;1304;22055;-80
2022/12/24 14:28:52;;;;;;;13.10;2.60;;;;;;;;;;106858;1301;22104;-79
2022/12/24 14:31:19;;;;;;;13.50;2.30;;;;;;;;;;106661;1294;22734;-78
2022/12/24 14:33:46;;;;;;;11.30;2.60;;;;;;;;;;106635;1308;22048;-78
2022/12/24 14:36:14;;;;;;;12.50;2.40;;;;;;;;;;106754;1309;22073;-78
2022/12/24 14:38:42;;;;;;;12.90;3.90;;;;;;;;;;106605;1296;22027;-79
2022/12/24 14:41:27;;;;;;;12.00;3.00;;;;;;;;;;106616;1303;22106;-75
2022/12/24 14:44:09;;;;;;;17.10;4.60;;;;;;;;;;106644;1309;22818;-78
2022/12/24 14:46:49;;;;;;;16.50;4.00;;;;;;;;;;106677;1309;22063;-78
2022/12/24 14:49:19;;;;;;;32.10;11.70;;;;;;;;;;106625;1309;22103;-79
2022/12/24 14:51:55;;;;;;;19.70;6.60;;;;;;;;;;106692;1309;22682;-79
2022/12/24 14:54:25;;;;;;;18.20;6.00;;;;;;;;;;106636;1309;22084;-77
2022/12/24 14:57:11;;;;;;;12.90;3.30;;;;;;;;;;106714;1309;22186;-75
2022/12/24 14:59:44;;;;;;;14.10;4.20;;;;;;;;;;106629;1309;22857;-75
2022/12/24 15:02:23;;;;;;;16.20;4.10;;;;;;;;;;106635;1310;22423;-76
2022/12/24 15:05:22;;;;;;;13.40;3.20;;;;;;;;;;106640;1302;22075;-77